Time;durP1;ratioP1;P1;durP2;ratioP2;P2;SDS_P1;SDS_P2;PMS_P1;PMS_P2;Temp;Humidity;BMP_temperature;BMP_pressure;BME280_temperature;BME280_humidity;BME280_pressure;Samples;Min_cycle;Max_cycle;Signal;HPM_P1;HPM_P2
2023/01/07 00:01:33;;;;;;;4.67;1.80;;;11.90;99.90;;;;;;5093545;28;20909;-75
2023/01/07 00:04:07;;;;;;;2.53;1.63;;;12.00;99.90;;;;;;5079942;28;20976;-73
2023/01/07 00:06:39;;;;;;;1.40;1.17;;;12.00;99.90;;;;;;5083415;28;20479;-73
2023/01/07 00:09:07;;;;;;;1.40;1.00;;;12.00;99.90;;;;;;5084037;28;20457;-74
2023/01/07 00:11:36;;;;;;;1.60;1.00;;;12.00;99.90;;;;;;5081789;28;20567;-74
2023/01/07 00:14:06;;;;;;;1.10;0.93;;;11.90;99.90;;;;;;5086122;28;20592;-75
2023/01/07 00:16:35;;;;;;;2.60;1.60;;;12.00;99.90;;;;;;5078224;28;20539;-74
2023/01/07 00:19:06;;;;;;;1.50;1.23;;;12.00;99.90;;;;;;5098197;28;20547;-73
2023/01/07 00:21:34;;;;;;;1.73;1.30;;;12.10;99.90;;;;;;5092985;28;20832;-74
2023/01/07 00:24:04;;;;;;;1.67;1.57;;;12.10;99.90;;;;;;5085021;28;20934;-74
2023/01/07 00:26:32;;;;;;;1.30;1.20;;;12.20;99.90;;;;;;5085574;28;20492;-74
2023/01/07 00:29:01;;;;;;;1.20;1.10;;;12.10;99.90;;;;;;5087151;28;20841;-73
2023/01/07 00:31:30;;;;;;;2.17;1.97;;;12.20;99.90;;;;;;5087565;28;20487;-74
2023/01/07 00:34:11;;;;;;;2.10;1.57;;;12.20;99.90;;;;;;5086196;28;20551;-75
2023/01/07 00:36:45;;;;;;;2.77;1.23;;;12.20;99.90;;;;;;5086536;28;20979;-74
2023/01/07 00:39:15;;;;;;;4.07;1.47;;;12.10;99.90;;;;;;5093005;28;20500;-74
2023/01/07 00:42:53;;;;;;;1.73;1.20;;;12.10;99.90;;;;;;5091097;28;20497;-74
2023/01/07 00:44:36;;;;;;;2.73;1.20;;;12.10;99.90;;;;;;5089163;28;20464;-75
2023/01/07 00:47:03;;;;;;;1.77;1.23;;;12.10;99.90;;;;;;5084193;28;20457;-74
2023/01/07 00:49:30;;;;;;;1.13;0.90;;;12.10;99.90;;;;;;5084414;28;20597;-74
2023/01/07 00:52:01;;;;;;;1.20;1.00;;;12.10;99.90;;;;;;5093087;28;20483;-74
2023/01/07 00:54:28;;;;;;;1.30;1.20;;;12.00;99.90;;;;;;5064652;28;20457;-73
2023/01/07 00:56:56;;;;;;;1.93;1.17;;;12.00;99.90;;;;;;5087546;28;20490;-74
2023/01/07 00:59:23;;;;;;;1.57;1.00;;;12.10;99.90;;;;;;5053994;28;20487;-73
2023/01/07 01:01:50;;;;;;;1.80;1.23;;;12.10;99.90;;;;;;5081052;28;20490;-74
2023/01/07 01:04:17;;;;;;;5.67;1.20;;;12.00;99.90;;;;;;5086475;28;20543;-73
2023/01/07 01:06:43;;;;;;;2.80;1.50;;;12.10;99.90;;;;;;5086819;28;20991;-74
2023/01/07 01:09:12;;;;;;;1.03;0.90;;;12.10;99.90;;;;;;5093498;28;21034;-74
2023/01/07 01:11:40;;;;;;;1.10;0.90;;;12.00;99.90;;;;;;5089035;28;20927;-73
2023/01/07 01:14:11;;;;;;;1.20;1.03;;;12.10;99.90;;;;;;5086077;28;20471;-74
2023/01/07 01:16:39;;;;;;;2.10;1.03;;;12.10;99.90;;;;;;5085247;28;20467;-75
2023/01/07 01:19:06;;;;;;;1.40;0.90;;;12.10;99.90;;;;;;5094844;28;20487;-75
2023/01/07 01:21:35;;;;;;;1.00;0.87;;;12.10;99.90;;;;;;5089216;28;20512;-74
2023/01/07 01:24:05;;;;;;;1.53;1.10;;;12.20;99.90;;;;;;5087401;28;20869;-76
2023/01/07 01:26:33;;;;;;;2.60;1.10;;;12.20;99.90;;;;;;5054028;28;20820;-74
2023/01/07 01:29:00;;;;;;;1.00;0.80;;;12.20;99.90;;;;;;5098033;28;20565;-74
2023/01/07 01:31:27;;;;;;;1.07;0.83;;;12.20;99.90;;;;;;5085507;28;20460;-74
2023/01/07 01:33:58;;;;;;;1.20;1.00;;;12.20;99.90;;;;;;5086069;28;20546;-73
2023/01/07 01:36:25;;;;;;;2.80;2.07;;;12.10;99.90;;;;;;5093703;28;20429;-73
2023/01/07 01:38:53;;;;;;;1.40;1.10;;;12.00;99.90;;;;;;5096114;28;20536;-74
2023/01/07 01:41:20;;;;;;;1.57;1.47;;;12.10;99.90;;;;;;5083864;28;20540;-74
2023/01/07 01:43:48;;;;;;;1.10;1.00;;;12.10;99.90;;;;;;5067700;28;20486;-74
2023/01/07 01:46:20;;;;;;;1.67;0.90;;;12.10;99.90;;;;;;5080232;28;20528;-74
2023/01/07 01:48:52;;;;;;;1.30;1.00;;;12.10;99.90;;;;;;5098071;28;20873;-74
2023/01/07 01:51:23;;;;;;;3.03;0.90;;;12.00;99.90;;;;;;5097159;28;20450;-72
2023/01/07 01:53:51;;;;;;;1.30;0.80;;;12.00;99.90;;;;;;5053355;28;20469;-73
2023/01/07 01:56:21;;;;;;;1.20;1.00;;;11.90;99.90;;;;;;5088778;28;20452;-74
2023/01/07 01:58:55;;;;;;;1.20;1.00;;;11.90;99.90;;;;;;5090120;28;20527;-73
2023/01/07 02:01:22;;;;;;;1.77;1.10;;;11.80;99.90;;;;;;5089207;28;20496;-73
2023/01/07 02:03:50;;;;;;;1.57;1.20;;;11.80;99.90;;;;;;5087979;28;20515;-74
2023/01/07 02:06:21;;;;;;;1.20;1.10;;;11.80;99.90;;;;;;5096172;28;20500;-74
2023/01/07 02:08:48;;;;;;;1.20;0.90;;;11.90;99.90;;;;;;5090041;28;20479;-74
2023/01/07 02:11:27;;;;;;;1.80;1.50;;;11.90;99.90;;;;;;5091425;28;20464;-73
2023/01/07 02:14:10;;;;;;;1.00;0.80;;;12.00;99.90;;;;;;5088371;28;20448;-75
2023/01/07 02:16:44;;;;;;;2.23;1.27;;;12.00;99.90;;;;;;5098787;28;20494;-73
2023/01/07 02:19:48;;;;;;;3.73;1.10;;;12.00;99.90;;;;;;5093575;28;20845;-74
2023/01/07 02:22:30;;;;;;;1.00;0.80;;;11.90;99.90;;;;;;5097366;28;20426;-73
2023/01/07 02:25:21;;;;;;;1.10;0.83;;;11.90;99.90;;;;;;5089189;28;20542;-73
2023/01/07 02:28:11;;;;;;;1.30;1.00;;;12.00;99.90;;;;;;5088378;28;20450;-74
2023/01/07 02:31:10;;;;;;;1.77;0.87;;;12.00;99.90;;;;;;5082477;28;20466;-73
2023/01/07 02:33:52;;;;;;;2.03;1.23;;;12.00;99.90;;;;;;5087794;28;20549;-74
2023/01/07 02:36:36;;;;;;;1.03;0.90;;;11.90;99.90;;;;;;5075395;28;20451;-74
2023/01/07 02:39:22;;;;;;;1.00;0.80;;;11.90;99.90;;;;;;5086521;28;20488;-75
2023/01/07 02:41:57;;;;;;;1.33;1.10;;;11.90;99.90;;;;;;5086286;28;21126;-74
2023/01/07 02:44:41;;;;;;;1.10;1.00;;;11.90;99.90;;;;;;5087985;28;20438;-74
2023/01/07 02:47:14;;;;;;;1.17;1.07;;;11.90;99.90;;;;;;5086126;28;20460;-73
2023/01/07 02:49:43;;;;;;;1.30;1.00;;;11.90;99.90;;;;;;5091680;28;20493;-75
2023/01/07 02:52:28;;;;;;;1.30;1.00;;;11.90;99.90;;;;;;5087079;28;20452;-74
2023/01/07 02:54:59;;;;;;;1.17;1.00;;;11.80;99.90;;;;;;5095618;28;20502;-73
2023/01/07 02:57:47;;;;;;;1.77;1.13;;;11.80;99.90;;;;;;5093716;28;20559;-73
2023/01/07 03:00:24;;;;;;;1.10;0.80;;;11.90;99.90;;;;;;5069894;28;20465;-75
2023/01/07 03:03:06;;;;;;;1.30;0.97;;;11.80;99.90;;;;;;5067045;28;20871;-74
2023/01/07 03:06:00;;;;;;;1.30;0.97;;;11.70;99.90;;;;;;5086698;28;20462;-74
2023/01/07 03:08:39;;;;;;;1.20;0.90;;;11.80;99.90;;;;;;5092190;28;20448;-73
2023/01/07 03:11:08;;;;;;;1.73;1.37;;;11.60;99.90;;;;;;5066467;28;20427;-73
2023/01/07 03:13:41;;;;;;;1.00;0.80;;;11.60;99.90;;;;;;5082993;28;20982;-74
2023/01/07 03:16:15;;;;;;;1.17;1.07;;;11.60;99.90;;;;;;5086883;28;20450;-75
2023/01/07 03:18:48;;;;;;;1.00;0.80;;;11.50;99.90;;;;;;5090898;28;21012;-74
2023/01/07 03:21:21;;;;;;;1.10;0.80;;;11.60;99.90;;;;;;5073945;28;20490;-73
2023/01/07 03:23:51;;;;;;;3.33;0.90;;;11.50;99.90;;;;;;5090034;28;20474;-74
2023/01/07 03:26:23;;;;;;;1.33;0.90;;;11.50;99.90;;;;;;5081948;28;20544;-73
2023/01/07 03:28:51;;;;;;;1.87;1.20;;;11.50;99.90;;;;;;5085098;28;20484;-73
2023/01/07 03:31:20;;;;;;;1.10;1.00;;;11.50;99.90;;;;;;5091195;28;20487;-75
2023/01/07 03:33:52;;;;;;;1.00;0.80;;;11.40;99.90;;;;;;5089203;28;20470;-73
2023/01/07 03:36:26;;;;;;;1.10;0.90;;;11.30;99.90;;;;;;5084906;28;20891;-74
2023/01/07 03:38:55;;;;;;;1.30;1.00;;;11.30;99.90;;;;;;5084335;28;20516;-73
2023/01/07 03:44:12;;;;;;;1.60;1.10;;;11.30;99.90;;;;;;5015264;28;21098;-74
2023/01/07 03:46:40;;;;;;;1.17;0.90;;;11.30;99.90;;;;;;5088130;28;20552;-72
2023/01/07 03:49:07;;;;;;;1.20;0.80;;;11.30;99.90;;;;;;5079201;28;20529;-74
2023/01/07 03:51:35;;;;;;;1.20;0.90;;;11.30;99.90;;;;;;5084420;28;20566;-73
2023/01/07 03:54:02;;;;;;;1.43;0.90;;;11.30;99.90;;;;;;5083293;28;20541;-74
2023/01/07 03:56:32;;;;;;;1.00;0.80;;;11.30;99.90;;;;;;5089524;28;20464;-74
2023/01/07 03:59:00;;;;;;;1.10;0.80;;;11.30;99.90;;;;;;5072521;28;20483;-75
2023/01/07 04:01:27;;;;;;;1.30;0.90;;;11.20;99.90;;;;;;5091532;28;20429;-75
2023/01/07 04:03:53;;;;;;;1.63;1.03;;;11.30;99.90;;;;;;5088014;28;20945;-74
2023/01/07 04:06:20;;;;;;;0.90;0.70;;;11.30;99.90;;;;;;5083352;28;20459;-74
2023/01/07 04:08:49;;;;;;;1.00;0.80;;;11.30;99.90;;;;;;5088344;28;20875;-75
2023/01/07 04:11:15;;;;;;;1.10;0.93;;;11.20;99.90;;;;;;5087382;28;20893;-75
2023/01/07 04:13:44;;;;;;;1.20;1.00;;;11.20;99.90;;;;;;5094840;28;20482;-74
2023/01/07 04:16:12;;;;;;;1.00;0.80;;;11.30;99.90;;;;;;5089047;28;20577;-74
2023/01/07 04:18:38;;;;;;;1.00;0.80;;;11.20;99.90;;;;;;5083364;28;20461;-73
2023/01/07 04:21:05;;;;;;;1.40;1.03;;;11.20;99.90;;;;;;5090708;28;20451;-74
2023/01/07 04:23:32;;;;;;;1.13;1.00;;;11.30;99.90;;;;;;5087916;28;20545;-73
2023/01/07 04:26:01;;;;;;;1.30;1.07;;;11.20;99.90;;;;;;5085951;28;20472;-73
2023/01/07 04:28:28;;;;;;;1.30;0.90;;;11.20;99.90;;;;;;5088835;28;20548;-74
2023/01/07 04:30:57;;;;;;;1.30;1.20;;;11.20;99.90;;;;;;5087569;28;20971;-74
2023/01/07 04:33:24;;;;;;;1.57;1.20;;;11.20;99.90;;;;;;5081987;28;20542;-74
2023/01/07 04:35:51;;;;;;;1.30;1.03;;;11.20;99.90;;;;;;5089858;28;20450;-73
2023/01/07 04:38:18;;;;;;;1.00;0.80;;;11.20;99.90;;;;;;5083274;28;21319;-74
2023/01/07 04:40:45;;;;;;;1.93;1.43;;;10.90;99.90;;;;;;5083803;28;20978;-74
2023/01/07 04:43:14;;;;;;;1.10;0.90;;;11.00;99.90;;;;;;5087416;28;20969;-73
2023/01/07 04:45:40;;;;;;;1.10;0.83;;;11.00;99.90;;;;;;5091003;28;20510;-74
2023/01/07 04:48:07;;;;;;;1.97;1.03;;;10.90;99.90;;;;;;5095646;28;20462;-74
2023/01/07 04:50:34;;;;;;;1.40;1.00;;;11.00;99.90;;;;;;5086392;28;20455;-74
2023/01/07 04:53:01;;;;;;;3.00;1.00;;;11.00;99.90;;;;;;5087159;28;20459;-74
2023/01/07 04:55:31;;;;;;;1.20;0.83;;;11.00;99.90;;;;;;5089464;28;20543;-74
2023/01/07 04:57:57;;;;;;;1.10;0.90;;;10.90;99.90;;;;;;5075022;28;20643;-74
2023/01/07 05:00:26;;;;;;;1.20;1.10;;;10.90;99.90;;;;;;5081221;28;20492;-74
2023/01/07 05:02:53;;;;;;;1.53;1.00;;;11.00;99.90;;;;;;5076048;28;21054;-74
2023/01/07 05:05:20;;;;;;;1.40;1.10;;;10.90;99.90;;;;;;5086281;28;20760;-76
2023/01/07 05:07:46;;;;;;;1.00;0.90;;;11.00;99.90;;;;;;5078435;28;20547;-75
2023/01/07 05:10:13;;;;;;;2.80;0.90;;;10.90;99.90;;;;;;5095379;28;20800;-75
2023/01/07 05:12:40;;;;;;;1.07;0.77;;;10.90;99.90;;;;;;5092231;28;20522;-74
2023/01/07 05:15:11;;;;;;;1.30;1.10;;;10.80;99.90;;;;;;5080629;28;20464;-75
2023/01/07 05:17:39;;;;;;;1.47;0.97;;;10.80;99.90;;;;;;5083640;28;20521;-74
2023/01/07 05:20:08;;;;;;;1.30;1.13;;;10.80;99.90;;;;;;5088238;28;20482;-75
2023/01/07 05:22:34;;;;;;;1.83;1.73;;;10.90;99.90;;;;;;5081920;28;20458;-74
2023/01/07 05:25:01;;;;;;;2.10;1.00;;;11.00;99.90;;;;;;5086663;28;20821;-74
2023/01/07 05:27:28;;;;;;;1.00;0.80;;;10.90;99.90;;;;;;5094693;28;20525;-74
2023/01/07 05:29:55;;;;;;;1.10;1.00;;;10.80;99.90;;;;;;5030295;28;20456;-74
2023/01/07 05:32:22;;;;;;;1.30;1.00;;;10.80;99.90;;;;;;5077605;28;20545;-74
2023/01/07 05:34:52;;;;;;;1.20;1.10;;;10.80;99.90;;;;;;5079922;28;20782;-74
2023/01/07 05:37:19;;;;;;;2.20;1.03;;;10.80;99.90;;;;;;5079410;28;20469;-74
2023/01/07 05:39:47;;;;;;;1.00;0.80;;;10.90;99.90;;;;;;5079813;28;20467;-74
2023/01/07 05:42:14;;;;;;;1.50;1.20;;;10.80;99.90;;;;;;5073458;28;20543;-74
2023/01/07 05:44:41;;;;;;;1.13;1.03;;;10.70;99.90;;;;;;5100120;28;20466;-74
2023/01/07 05:47:08;;;;;;;2.53;1.17;;;10.80;99.90;;;;;;5092728;28;20463;-74
2023/01/07 05:49:35;;;;;;;1.67;1.30;;;10.80;99.90;;;;;;5089692;28;20454;-74
2023/01/07 05:52:03;;;;;;;1.73;1.50;;;10.70;99.90;;;;;;5092349;28;20458;-74
2023/01/07 05:54:30;;;;;;;1.20;0.97;;;10.60;99.90;;;;;;5044630;28;20460;-74
2023/01/07 05:57:00;;;;;;;1.30;1.10;;;10.70;99.90;;;;;;5086529;28;20459;-74
2023/01/07 05:59:32;;;;;;;1.40;1.07;;;10.60;99.90;;;;;;5089437;28;20585;-74
2023/01/07 06:01:59;;;;;;;1.40;1.30;;;10.60;99.90;;;;;;5068319;28;20457;-75
2023/01/07 06:04:26;;;;;;;4.70;1.13;;;10.50;99.90;;;;;;5086084;28;20539;-74
2023/01/07 06:06:53;;;;;;;1.20;1.00;;;10.50;99.90;;;;;;5089384;28;20552;-74
2023/01/07 06:09:25;;;;;;;1.87;1.43;;;10.60;99.90;;;;;;5091168;28;20469;-74
2023/01/07 06:11:52;;;;;;;1.60;1.40;;;10.60;99.90;;;;;;5091318;28;20546;-74
2023/01/07 06:14:19;;;;;;;1.40;0.97;;;10.60;99.90;;;;;;5086824;28;20574;-74
2023/01/07 06:16:46;;;;;;;1.40;1.10;;;10.70;99.90;;;;;;5096434;28;20596;-74
2023/01/07 06:19:13;;;;;;;2.30;1.30;;;10.60;99.90;;;;;;5086696;28;20577;-74
2023/01/07 06:21:39;;;;;;;1.43;1.00;;;10.60;99.90;;;;;;5085569;28;20475;-74
2023/01/07 06:24:07;;;;;;;1.10;0.80;;;10.50;99.90;;;;;;5076564;28;20585;-74
2023/01/07 06:26:36;;;;;;;1.77;1.67;;;10.60;99.90;;;;;;5083526;28;20847;-74
2023/01/07 06:29:02;;;;;;;1.40;1.10;;;10.60;99.90;;;;;;5087431;28;20474;-74
2023/01/07 06:31:29;;;;;;;1.27;1.07;;;10.60;99.90;;;;;;5043540;28;20452;-75
2023/01/07 06:33:56;;;;;;;1.47;0.90;;;10.50;99.90;;;;;;5084380;28;20486;-74
2023/01/07 06:36:23;;;;;;;1.10;0.97;;;10.50;99.90;;;;;;5084668;28;20466;-74
2023/01/07 06:38:50;;;;;;;1.90;1.40;;;10.50;99.90;;;;;;5089140;28;20519;-74
2023/01/07 06:41:17;;;;;;;1.10;0.80;;;10.40;99.90;;;;;;5087057;28;20461;-74
2023/01/07 06:43:45;;;;;;;1.70;1.53;;;10.50;99.90;;;;;;5100015;28;20840;-74
2023/01/07 06:46:12;;;;;;;1.07;0.97;;;10.50;99.90;;;;;;5083640;28;20471;-75
2023/01/07 06:48:39;;;;;;;1.87;1.33;;;10.40;99.90;;;;;;5082185;28;20446;-75
2023/01/07 06:51:06;;;;;;;1.60;1.50;;;10.40;99.90;;;;;;5083855;28;20610;-74
2023/01/07 06:53:33;;;;;;;1.87;1.47;;;10.30;99.90;;;;;;5088947;28;21063;-74
2023/01/07 06:56:00;;;;;;;2.90;1.17;;;10.30;99.90;;;;;;5062782;28;20455;-74
2023/01/07 06:58:27;;;;;;;1.60;1.10;;;10.30;99.90;;;;;;5091280;28;20611;-74
2023/01/07 07:00:55;;;;;;;2.23;1.17;;;10.30;99.90;;;;;;5049423;28;20600;-74
2023/01/07 07:03:22;;;;;;;1.37;1.00;;;10.30;99.90;;;;;;5092212;28;20463;-74
2023/01/07 07:05:49;;;;;;;2.80;1.80;;;10.30;99.90;;;;;;5089161;28;20459;-75
2023/01/07 07:08:17;;;;;;;1.20;1.00;;;10.30;99.90;;;;;;5091281;28;20989;-74
2023/01/07 07:10:44;;;;;;;1.20;1.00;;;10.40;99.90;;;;;;5078336;28;20475;-74
2023/01/07 07:13:11;;;;;;;4.03;2.00;;;10.40;99.90;;;;;;5075977;28;20947;-74
2023/01/07 07:15:38;;;;;;;1.20;1.00;;;10.40;99.90;;;;;;5086756;28;20462;-74
2023/01/07 07:18:07;;;;;;;1.70;1.27;;;10.40;99.90;;;;;;5079997;28;20447;-74
2023/01/07 07:20:34;;;;;;;1.50;1.40;;;10.50;99.90;;;;;;5083954;28;20487;-74
2023/01/07 07:23:01;;;;;;;1.00;0.90;;;10.70;99.90;;;;;;5087396;28;20462;-74
2023/01/07 07:25:28;;;;;;;2.80;1.10;;;10.70;99.90;;;;;;5087415;28;20508;-74
2023/01/07 07:27:55;;;;;;;1.40;1.10;;;10.70;99.90;;;;;;5079027;28;20862;-74
2023/01/07 07:30:22;;;;;;;1.47;1.20;;;10.70;99.90;;;;;;5083786;28;20783;-74
2023/01/07 07:32:49;;;;;;;1.53;1.13;;;10.60;99.90;;;;;;5085065;28;20490;-74
2023/01/07 07:35:18;;;;;;;1.70;1.30;;;10.70;99.90;;;;;;5032930;28;20430;-74
2023/01/07 07:37:44;;;;;;;1.10;0.80;;;10.90;99.90;;;;;;5082226;28;20478;-74
2023/01/07 07:40:12;;;;;;;3.30;1.60;;;10.90;99.90;;;;;;5085085;28;20555;-74
2023/01/07 07:42:40;;;;;;;1.30;1.10;;;11.00;99.90;;;;;;5099956;28;20502;-74
2023/01/07 07:45:08;;;;;;;2.00;1.43;;;11.00;99.90;;;;;;5082770;28;20526;-73
2023/01/07 07:47:35;;;;;;;1.40;1.30;;;11.10;99.90;;;;;;5081554;28;20570;-74
2023/01/07 07:50:03;;;;;;;1.20;1.00;;;11.10;99.90;;;;;;5088310;28;20452;-74
2023/01/07 07:52:32;;;;;;;2.13;1.17;;;11.20;99.90;;;;;;5083802;28;21003;-73
2023/01/07 07:55:00;;;;;;;1.53;1.00;;;11.20;99.90;;;;;;5084710;28;20531;-74
2023/01/07 07:57:27;;;;;;;1.70;1.10;;;11.20;99.90;;;;;;5080209;28;20480;-73
2023/01/07 07:59:54;;;;;;;1.53;1.00;;;11.20;99.90;;;;;;5082735;28;20491;-73
2023/01/07 08:02:21;;;;;;;3.63;1.70;;;11.20;99.90;;;;;;5045349;28;20449;-74
2023/01/07 08:04:47;;;;;;;7.13;3.43;;;11.20;99.90;;;;;;5084654;28;20503;-74
2023/01/07 08:07:14;;;;;;;1.10;0.90;;;11.30;99.90;;;;;;5081968;28;20491;-73
2023/01/07 08:09:45;;;;;;;1.40;1.03;;;11.20;99.90;;;;;;5080020;28;20500;-74
2023/01/07 08:12:13;;;;;;;1.03;0.90;;;11.20;99.90;;;;;;5084502;28;20508;-74
2023/01/07 08:14:40;;;;;;;1.93;1.50;;;11.20;99.90;;;;;;5087154;28;20533;-74
2023/01/07 08:17:07;;;;;;;1.07;0.97;;;11.20;99.90;;;;;;5092437;28;20467;-73
2023/01/07 08:19:35;;;;;;;1.97;0.90;;;11.40;99.90;;;;;;5077486;28;20460;-73
2023/01/07 08:22:02;;;;;;;2.03;1.10;;;11.40;99.90;;;;;;5086429;28;20460;-74
2023/01/07 08:24:29;;;;;;;1.50;0.97;;;11.40;99.90;;;;;;5084208;28;20498;-74
2023/01/07 08:26:57;;;;;;;1.83;1.10;;;11.40;99.90;;;;;;5081210;28;20434;-74
2023/01/07 08:29:24;;;;;;;1.67;1.00;;;11.40;99.90;;;;;;5083090;28;20550;-75
2023/01/07 08:31:51;;;;;;;1.67;0.93;;;11.40;99.90;;;;;;5082433;28;20470;-73
2023/01/07 08:34:18;;;;;;;1.20;0.90;;;11.40;99.90;;;;;;5088974;28;20555;-74
2023/01/07 08:36:48;;;;;;;1.40;1.27;;;11.40;99.90;;;;;;5084600;28;20522;-74
2023/01/07 08:39:15;;;;;;;1.10;0.97;;;11.40;99.90;;;;;;5081921;28;20574;-74
2023/01/07 08:41:42;;;;;;;2.40;1.00;;;11.30;99.90;;;;;;5099357;28;20480;-74
2023/01/07 08:44:10;;;;;;;1.70;1.00;;;11.40;99.90;;;;;;5087221;28;20465;-74
2023/01/07 08:46:37;;;;;;;1.60;1.03;;;11.50;99.90;;;;;;5084750;28;20527;-74
2023/01/07 08:49:04;;;;;;;2.50;0.90;;;11.50;99.90;;;;;;5078659;28;20486;-74
2023/01/07 08:51:31;;;;;;;1.27;1.13;;;11.50;99.90;;;;;;5079163;28;20423;-74
2023/01/07 08:53:58;;;;;;;1.30;1.00;;;11.40;99.90;;;;;;5084615;28;20476;-73
2023/01/07 08:56:25;;;;;;;2.60;1.20;;;11.40;99.90;;;;;;5096130;28;20480;-74
2023/01/07 08:58:55;;;;;;;1.10;0.83;;;11.40;99.90;;;;;;5095999;28;20489;-73
2023/01/07 09:01:23;;;;;;;1.10;0.90;;;11.50;99.90;;;;;;5086431;28;20479;-74
2023/01/07 09:03:50;;;;;;;2.13;1.60;;;11.50;99.90;;;;;;5078273;28;20467;-74
2023/01/07 09:06:16;;;;;;;1.10;0.70;;;11.50;99.90;;;;;;5082400;28;20559;-74
2023/01/07 09:08:45;;;;;;;1.10;0.80;;;11.50;99.90;;;;;;5081490;28;20483;-74
2023/01/07 09:11:12;;;;;;;1.00;0.70;;;11.50;99.90;;;;;;5079278;28;20559;-74
2023/01/07 09:13:39;;;;;;;1.10;0.90;;;11.50;99.90;;;;;;5057320;28;20567;-74
2023/01/07 09:16:07;;;;;;;1.00;0.90;;;11.50;99.90;;;;;;5087570;28;20477;-74
2023/01/07 09:18:35;;;;;;;1.10;0.90;;;11.60;99.90;;;;;;5082042;28;20488;-74
2023/01/07 09:21:04;;;;;;;1.10;0.90;;;11.70;99.90;;;;;;5079778;28;20786;-73
2023/01/07 09:23:31;;;;;;;1.13;0.90;;;11.60;99.90;;;;;;5085232;28;21016;-74
2023/01/07 09:25:58;;;;;;;1.20;1.03;;;11.80;99.90;;;;;;5090917;28;20549;-73
2023/01/07 09:28:25;;;;;;;1.57;1.20;;;11.60;99.90;;;;;;5084573;28;20490;-73
2023/01/07 09:30:52;;;;;;;1.30;0.80;;;11.70;99.90;;;;;;5081666;28;20453;-73
2023/01/07 09:33:19;;;;;;;1.17;0.90;;;11.70;99.90;;;;;;5079854;28;21130;-73
2023/01/07 09:35:47;;;;;;;2.27;1.67;;;11.70;99.90;;;;;;5084127;28;20550;-73
2023/01/07 09:38:14;;;;;;;1.23;0.80;;;11.70;99.90;;;;;;5089526;28;21215;-74
2023/01/07 09:40:42;;;;;;;1.13;0.80;;;11.70;99.90;;;;;;5053248;28;20449;-73
2023/01/07 09:43:17;;;;;;;1.80;1.00;;;11.70;99.90;;;;;;5085139;28;20543;-73
2023/01/07 09:45:48;;;;;;;1.80;0.87;;;11.60;99.90;;;;;;5083264;28;20546;-75
2023/01/07 09:48:20;;;;;;;2.13;0.90;;;11.60;99.90;;;;;;5079037;28;20510;-74
2023/01/07 09:50:55;;;;;;;2.87;1.30;;;11.80;99.90;;;;;;5079644;28;20835;-74
2023/01/07 09:53:26;;;;;;;1.33;0.83;;;11.70;99.90;;;;;;5089657;28;20459;-74
2023/01/07 09:55:55;;;;;;;1.00;0.70;;;11.70;99.90;;;;;;5083218;28;20522;-74
2023/01/07 09:58:22;;;;;;;4.03;1.00;;;11.80;99.90;;;;;;5083717;28;20515;-74
2023/01/07 10:00:58;;;;;;;2.83;1.47;;;11.60;99.90;;;;;;5087092;28;20540;-74
2023/01/07 10:03:42;;;;;;;1.30;1.17;;;11.60;99.90;;;;;;5087323;28;20470;-74
2023/01/07 10:06:16;;;;;;;1.67;1.10;;;11.60;99.90;;;;;;5086375;28;20459;-74
2023/01/07 10:09:01;;;;;;;1.07;0.93;;;11.60;99.90;;;;;;5088953;28;20468;-74
2023/01/07 10:11:51;;;;;;;2.17;1.10;;;11.60;99.90;;;;;;5060662;28;20539;-74
2023/01/07 10:14:52;;;;;;;1.50;1.00;;;11.50;99.90;;;;;;5084064;28;21354;-73
2023/01/07 10:17:30;;;;;;;3.93;1.00;;;11.60;99.90;;;;;;5089986;28;20481;-73
2023/01/07 10:20:02;;;;;;;1.40;1.30;;;11.70;99.90;;;;;;5096940;28;20849;-73
2023/01/07 10:22:35;;;;;;;1.00;0.70;;;11.70;99.90;;;;;;5095823;28;20485;-73
2023/01/07 10:25:09;;;;;;;2.03;1.73;;;11.60;99.90;;;;;;5091959;28;20497;-73
2023/01/07 10:27:41;;;;;;;1.67;1.10;;;11.70;99.90;;;;;;5096822;28;20494;-73
2023/01/07 10:30:17;;;;;;;2.90;1.10;;;11.80;99.90;;;;;;5101312;28;20824;-73
2023/01/07 10:32:46;;;;;;;3.37;1.90;;;11.70;99.90;;;;;;5091045;28;20550;-74
2023/01/07 10:35:20;;;;;;;1.00;0.80;;;11.70;99.90;;;;;;5094628;28;20907;-75
2023/01/07 10:37:48;;;;;;;1.70;1.30;;;11.90;99.90;;;;;;5085490;28;20505;-73
2023/01/07 10:40:33;;;;;;;1.57;1.00;;;12.00;99.90;;;;;;5115736;28;20461;-74
2023/01/07 10:43:07;;;;;;;1.00;0.70;;;12.10;99.90;;;;;;5087461;28;20448;-74
2023/01/07 10:46:00;;;;;;;2.00;1.80;;;12.00;99.90;;;;;;5090763;28;20456;-74
2023/01/07 10:48:56;;;;;;;1.93;1.00;;;12.00;99.90;;;;;;5089845;28;20483;-75
2023/01/07 10:51:40;;;;;;;1.50;1.30;;;12.10;99.90;;;;;;5091558;28;20863;-75
2023/01/07 10:57:06;;;;;;;2.00;1.03;;;12.40;99.90;;;;;;5085937;27;20654;-74
2023/01/07 10:59:33;;;;;;;1.40;1.30;;;12.60;99.90;;;;;;5071861;28;20472;-75
2023/01/07 11:02:01;;;;;;;2.23;1.30;;;12.50;99.90;;;;;;5068497;28;20449;-74
2023/01/07 11:04:36;;;;;;;1.67;1.27;;;12.70;99.90;;;;;;5069865;28;20553;-74
2023/01/07 11:07:06;;;;;;;6.50;1.30;;;12.70;99.90;;;;;;5062457;28;20497;-75
2023/01/07 11:09:43;;;;;;;6.50;3.57;;;12.90;99.90;;;;;;5063696;28;20443;-75
2023/01/07 11:12:23;;;;;;;1.23;1.10;;;13.00;99.90;;;;;;5032142;28;20504;-74
2023/01/07 11:14:53;;;;;;;2.13;1.10;;;12.80;99.90;;;;;;5057804;28;20862;-74
2023/01/07 11:17:32;;;;;;;2.60;1.40;;;12.90;99.90;;;;;;5058395;28;20490;-74
2023/01/07 11:20:04;;;;;;;2.33;1.43;;;13.00;99.90;;;;;;5055546;28;20457;-75
2023/01/07 11:22:33;;;;;;;1.60;1.33;;;13.10;99.90;;;;;;5058368;28;20459;-74
2023/01/07 11:25:05;;;;;;;1.33;1.00;;;12.90;99.90;;;;;;5068942;28;20896;-74
2023/01/07 11:27:34;;;;;;;1.10;0.80;;;13.00;99.90;;;;;;5056589;28;20478;-74
2023/01/07 11:30:06;;;;;;;1.53;1.43;;;12.80;99.90;;;;;;5054151;28;20517;-75
2023/01/07 11:32:37;;;;;;;3.13;1.60;;;12.90;99.90;;;;;;5056236;28;21096;-74
2023/01/07 11:35:07;;;;;;;1.70;1.23;;;13.10;99.90;;;;;;5063437;28;20998;-75
2023/01/07 11:37:38;;;;;;;1.60;1.00;;;13.00;99.90;;;;;;5077026;28;20470;-74
2023/01/07 11:40:21;;;;;;;2.13;1.37;;;13.20;99.90;;;;;;5073057;28;20461;-74
2023/01/07 11:42:53;;;;;;;1.50;1.40;;;13.20;99.90;;;;;;5058405;28;20905;-74
2023/01/07 11:45:23;;;;;;;2.43;1.37;;;13.20;99.90;;;;;;5060527;28;20533;-75
2023/01/07 11:48:00;;;;;;;1.43;1.30;;;13.20;99.90;;;;;;5061836;28;20474;-74
2023/01/07 11:50:33;;;;;;;1.60;1.30;;;13.20;99.90;;;;;;5022684;28;20458;-74
2023/01/07 11:53:04;;;;;;;1.17;0.83;;;13.30;99.90;;;;;;5057951;28;20582;-74
2023/01/07 11:55:32;;;;;;;1.97;1.63;;;13.30;99.90;;;;;;5055643;28;20565;-73
2023/01/07 11:58:01;;;;;;;1.57;1.00;;;13.30;99.90;;;;;;5059306;28;20949;-74
2023/01/07 12:00:30;;;;;;;1.43;1.10;;;13.40;99.90;;;;;;5021668;28;20550;-74
2023/01/07 12:03:02;;;;;;;2.27;1.40;;;13.40;99.90;;;;;;5056721;28;20947;-75
2023/01/07 12:05:30;;;;;;;1.57;1.20;;;13.00;99.90;;;;;;5053857;28;25998;-75
2023/01/07 12:07:57;;;;;;;1.70;1.20;;;12.80;99.90;;;;;;5046758;28;20506;-74
2023/01/07 12:10:37;;;;;;;1.43;1.30;;;13.00;99.90;;;;;;5041148;28;20463;-74
2023/01/07 12:13:17;;;;;;;2.53;1.30;;;13.10;99.90;;;;;;5042299;28;20551;-75
2023/01/07 12:15:51;;;;;;;1.60;1.13;;;13.20;99.90;;;;;;5040898;28;21099;-75
2023/01/07 12:18:38;;;;;;;1.90;1.70;;;13.30;99.90;;;;;;5052093;28;20486;-74
2023/01/07 12:21:32;;;;;;;2.47;1.70;;;13.20;99.90;;;;;;5011839;28;20455;-73
2023/01/07 12:24:26;;;;;;;2.07;1.80;;;13.00;99.90;;;;;;5041038;28;20459;-76
2023/01/07 12:27:00;;;;;;;1.57;1.47;;;13.10;99.90;;;;;;5037523;28;20519;-75
2023/01/07 12:29:43;;;;;;;1.57;1.27;;;12.90;99.90;;;;;;5012387;28;20463;-76
2023/01/07 12:32:28;;;;;;;1.07;0.90;;;12.80;99.90;;;;;;5047240;28;20459;-75
2023/01/07 12:35:00;;;;;;;7.43;1.20;;;12.90;99.90;;;;;;5047710;28;20490;-75
2023/01/07 12:37:32;;;;;;;1.73;1.10;;;13.00;99.90;;;;;;5055310;28;20479;-76
2023/01/07 12:40:22;;;;;;;1.30;0.90;;;12.90;99.90;;;;;;5057367;28;20495;-75
2023/01/07 12:42:57;;;;;;;1.60;1.20;;;12.80;99.90;;;;;;5048716;28;20456;-75
2023/01/07 12:45:31;;;;;;;1.67;1.10;;;13.00;99.90;;;;;;5055010;28;20459;-75
2023/01/07 12:48:01;;;;;;;0.90;0.70;;;12.90;99.90;;;;;;5041363;28;20566;-75
2023/01/07 12:50:33;;;;;;;1.40;0.97;;;12.80;99.90;;;;;;5044005;28;20463;-76
2023/01/07 12:53:06;;;;;;;1.40;1.23;;;12.80;99.90;;;;;;5045521;28;20543;-74
2023/01/07 12:55:36;;;;;;;1.93;1.10;;;13.30;99.90;;;;;;5041217;28;20488;-75
2023/01/07 12:58:10;;;;;;;1.00;0.80;;;13.40;99.90;;;;;;5042483;28;20520;-75
2023/01/07 13:00:45;;;;;;;2.23;1.10;;;13.50;99.90;;;;;;5051417;28;20459;-75
2023/01/07 13:03:34;;;;;;;1.10;0.87;;;13.40;99.90;;;;;;5045731;28;20459;-75
2023/01/07 13:06:10;;;;;;;1.40;1.20;;;13.30;99.90;;;;;;5045928;28;20468;-74
2023/01/07 13:08:46;;;;;;;1.10;0.90;;;13.10;99.90;;;;;;5040657;28;20483;-74
2023/01/07 13:12:41;;;;;;;1.00;0.80;;;13.00;99.90;;;;;;5045059;28;20525;-76
2023/01/07 13:14:15;;;;;;;1.20;0.90;;;12.90;99.90;;;;;;5048631;28;20470;-75